TAF

         

SANTO DOMINGO 22 DE ENERO DEL 2021                                             

 AEROP. INT. LAS AMERICAS JFPG-

 

FTDR31 MDSD 222200Z
TAF 

TAF MDPP 222200Z 2300/2324 00000KT 9999 FEW018 BECMG 2414/2416 09010KT=

TAF MDST 222200Z 2300/2324 10006KT 9999 FEW018 SCT300 BECMG 2304/2306 00000KT=

TAF MDPC 222200Z 2300/2324 00000KT 9999 FEW020 PROB30 2306/2312 8000 -SH BKN018 BECMG 2308/2310 07006KT=

TAF MDBH 222200Z 2300/2324 13010KT 9999 FEW018 BECMG 2305/2307 00000KT=

TAF MDJB 222200Z 2300/2324 09010KT 9999 FEW018 SCT300=

TAF MDSD 222200Z 2300/2324 02004KT 9999 SCT020=

TAF MDLR 222200Z 2300/2324 04007KT 9999 FEW020=

TAF MDCY 222200Z 2300/2324 05010KT 9999 FEW020 PROB30 2301/2307 8000 SH SCT016 BKN070 =

MDPP AEROPUERTO INTERNACIONAL LA UNION PUERTO PLATA

MDST AEROPUERTO INTERNACIONAL DE SANTIAGO

MDPC AEROPUERTO INTERNACIONAL PUNTA CANA

MDBH AEROPUERTO INTERNACIONAL DE BARAHONA

MDJB AEROPUERTO INTERNACIONAL JOAQUIN BALAGUER

MDSD AEROPUERTO INTERNACIONAL LAS AMERICAS

MDLR AEROPUERTO INTERNACIONAL LA ROMANA

MDCY AEROPUERTO INTERNACIONAL DE CATEY

 

BILLY DE LA CRUZ

MDPP // SAMUEL ROSARIO

MDST // SANTO.POLANCO

MDJB// N. ALCANTARA

MDPC// MAXIMINA FAMILIA

MDBH //MENDEZ

MDCY// FLORENTINO

MDLR// E. BAUTISTA